createdAt,value
2023-04-26T00:02:08.387Z,100704.41
2023-04-26T00:04:35.272Z,100709.00
2023-04-26T00:07:01.808Z,100705.75
2023-04-26T00:09:28.248Z,100713.06
2023-04-26T00:11:55.221Z,100715.19
2023-04-26T00:14:23.967Z,100719.25
2023-04-26T00:16:50.611Z,100722.78
2023-04-26T00:19:18.171Z,100718.75
2023-04-26T00:21:44.710Z,100720.38
2023-04-26T00:24:11.179Z,100727.91
2023-04-26T00:26:37.628Z,100724.41
2023-04-26T00:29:04.720Z,100720.34
2023-04-26T00:31:31.178Z,100715.47
2023-04-26T00:33:57.673Z,100720.84
2023-04-26T00:36:24.129Z,100715.19
2023-04-26T00:38:50.995Z,100714.63
2023-04-26T00:41:17.738Z,100720.06
2023-04-26T00:43:45.137Z,100729.78
2023-04-26T00:46:12.416Z,100727.63
2023-04-26T00:48:39.066Z,100734.66
2023-04-26T00:51:06.485Z,100722.22
2023-04-26T00:53:35.333Z,100721.94
2023-04-26T00:56:02.101Z,100734.38
2023-04-26T00:58:29.349Z,100736.81
2023-04-26T01:00:56.080Z,100732.25
2023-04-26T01:03:22.825Z,100734.97
2023-04-26T01:05:49.814Z,100742.25
2023-04-26T01:08:20.636Z,100737.66
2023-04-26T01:10:48.734Z,100744.69
2023-04-26T01:13:15.881Z,100752.28
2023-04-26T01:15:45.801Z,100745.78
2023-04-26T01:18:13.937Z,100743.09
2023-04-26T01:20:41.821Z,100746.88
2023-04-26T01:26:49.237Z,100737.16
2023-04-26T01:29:20.841Z,100750.94
2023-04-26T01:31:48.655Z,100739.84
2023-04-26T01:34:15.633Z,100745.25
2023-04-26T01:36:42.623Z,100742.00
2023-04-26T01:39:09.450Z,100744.97
2023-04-26T01:41:35.984Z,100745.22
2023-04-26T01:44:02.551Z,100745.50
2023-04-26T01:46:29.079Z,100749.53
2023-04-26T01:48:55.635Z,100746.03
2023-04-26T01:51:22.047Z,100750.31
2023-04-26T01:53:48.469Z,100748.44
2023-04-26T01:56:15.229Z,100745.47
2023-04-26T01:58:41.750Z,100744.38
2023-04-26T02:01:09.289Z,100748.94
2023-04-26T02:03:36.240Z,100746.50
2023-04-26T02:06:03.357Z,100748.09
2023-04-26T02:08:30.186Z,100752.66
2023-04-26T02:10:56.922Z,100752.66
2023-04-26T02:13:23.431Z,100748.81
2023-04-26T02:15:51.333Z,100746.31
2023-04-26T02:18:21.724Z,100750.94
2023-04-26T02:20:48.361Z,100749.03
2023-04-26T02:23:14.878Z,100745.69
2023-04-26T02:25:42.298Z,100757.00
2023-04-26T02:28:08.733Z,100760.97
2023-04-26T02:30:35.339Z,100753.75
2023-04-26T02:33:02.170Z,100748.38
2023-04-26T02:35:28.748Z,100752.41
2023-04-26T02:37:55.253Z,100757.25
2023-04-26T02:40:21.899Z,100758.31
2023-04-26T02:42:49.474Z,100744.31
2023-04-26T02:45:16.078Z,100747.00
2023-04-26T02:47:42.552Z,100749.19
2023-04-26T02:50:09.687Z,100740.81
2023-04-26T02:52:36.665Z,100746.50
2023-04-26T02:55:04.479Z,100750.84
2023-04-26T02:57:31.716Z,100753.53
2023-04-26T02:59:58.918Z,100747.66
2023-04-26T03:02:25.718Z,100755.75
2023-04-26T03:04:52.579Z,100749.28
2023-04-26T03:07:19.167Z,100748.13
2023-04-26T03:09:45.747Z,100748.22
2023-04-26T03:12:12.247Z,100747.06
2023-04-26T03:14:38.915Z,100749.19
2023-04-26T03:17:05.380Z,100748.09
2023-04-26T03:19:31.801Z,100748.91
2023-04-26T03:21:58.277Z,100750.53
2023-04-26T03:24:24.727Z,100751.28
2023-04-26T03:26:51.171Z,100756.94
2023-04-26T03:29:17.810Z,100756.41
2023-04-26T03:31:44.376Z,100759.63
2023-04-26T03:34:11.492Z,100759.34
2023-04-26T03:36:38.468Z,100768.44
2023-04-26T03:39:06.151Z,100761.94
2023-04-26T03:41:33.554Z,100766.19
2023-04-26T03:44:00.011Z,100763.19
2023-04-26T03:46:26.557Z,100763.94
2023-04-26T03:48:53.368Z,100767.28
2023-04-26T03:51:20.089Z,100763.78
2023-04-26T03:53:48.658Z,100767.56
2023-04-26T03:56:15.412Z,100766.47
2023-04-26T03:58:43.257Z,100760.25
2023-04-26T04:01:09.828Z,100761.56
2023-04-26T04:03:39.237Z,100767.53
2023-04-26T04:06:07.981Z,100767.00
2023-04-26T04:08:34.715Z,100773.19
2023-04-26T04:11:01.502Z,100765.91
2023-04-26T04:13:28.166Z,100770.31
2023-04-26T04:15:54.782Z,100772.50
2023-04-26T04:18:21.261Z,100776.06
2023-04-26T04:20:47.702Z,100768.81
2023-04-26T04:23:14.238Z,100776.97
2023-04-26T04:25:41.074Z,100769.38
2023-04-26T04:28:08.547Z,100779.19
2023-04-26T04:30:35.576Z,100779.97
2023-04-26T04:33:03.768Z,100775.91
2023-04-26T04:35:33.475Z,100783.00
2023-04-26T04:38:00.218Z,100790.03
2023-04-26T04:40:27.477Z,100795.97
2023-04-26T04:42:54.846Z,100794.41
2023-04-26T04:45:21.622Z,100786.50
2023-04-26T04:47:48.407Z,100801.13
2023-04-26T04:50:14.944Z,100799.84
2023-04-26T04:52:42.528Z,100801.97
2023-04-26T04:55:09.846Z,100801.75
2023-04-26T04:57:36.236Z,100804.19
2023-04-26T05:00:09.999Z,100803.88
2023-04-26T05:02:37.377Z,100799.66
2023-04-26T05:05:05.178Z,100814.78
2023-04-26T05:07:32.537Z,100814.84
2023-04-26T05:09:59.880Z,100813.97
2023-04-26T05:12:26.856Z,100815.13
2023-04-26T05:14:53.366Z,100809.63
2023-04-26T05:17:20.090Z,100821.09
2023-04-26T05:19:47.213Z,100822.75
2023-04-26T05:22:18.441Z,100823.81
2023-04-26T05:24:48.686Z,100822.50
2023-04-26T05:27:15.295Z,100825.53
2023-04-26T05:29:42.067Z,100819.06
2023-04-26T05:32:08.938Z,100825.84
2023-04-26T05:34:36.612Z,100826.44
2023-04-26T05:37:03.531Z,100831.03
2023-04-26T05:39:30.661Z,100833.72
2023-04-26T05:41:57.226Z,100832.13
2023-04-26T05:44:23.720Z,100835.63
2023-04-26T05:46:50.202Z,100841.28
2023-04-26T05:49:16.578Z,100838.34
2023-04-26T05:51:43.342Z,100840.88
2023-04-26T05:54:09.861Z,100849.81
2023-04-26T05:56:36.283Z,100854.16
2023-04-26T05:59:02.726Z,100849.59
2023-04-26T06:01:29.164Z,100852.31
2023-04-26T06:03:59.209Z,100848.00
2023-04-26T06:06:28.286Z,100846.38
2023-04-26T06:08:55.037Z,100847.50
2023-04-26T06:11:21.601Z,100844.50
2023-04-26T06:13:48.133Z,100846.91
2023-04-26T06:16:14.643Z,100842.34
2023-04-26T06:18:41.339Z,100841.25
2023-04-26T06:21:08.098Z,100855.63
2023-04-26T06:23:34.545Z,100842.91
2023-04-26T06:26:01.109Z,100843.44
2023-04-26T06:28:27.538Z,100845.31
2023-04-26T06:30:54.108Z,100845.88
2023-04-26T06:33:20.533Z,100849.91
2023-04-26T06:35:47.050Z,100854.19
2023-04-26T06:38:13.546Z,100854.47
2023-04-26T06:40:40.185Z,100853.09
2023-04-26T06:43:06.582Z,100846.06
2023-04-26T06:45:33.011Z,100854.59
2023-04-26T06:48:01.865Z,100853.50
2023-04-26T06:50:28.318Z,100855.88
2023-04-26T06:52:54.780Z,100863.59
2023-04-26T06:55:21.285Z,100854.75
2023-04-26T06:57:47.761Z,100854.84
2023-04-26T07:00:14.732Z,100859.00
2023-04-26T07:02:41.470Z,100853.53
2023-04-26T07:05:11.015Z,100856.41
2023-04-26T07:07:37.767Z,100854.44
2023-04-26T07:10:04.720Z,100852.34
2023-04-26T07:12:31.554Z,100854.16
2023-04-26T07:14:58.117Z,100854.66
2023-04-26T07:17:25.690Z,100846.72
2023-04-26T07:19:52.810Z,100851.63
2023-04-26T07:22:19.974Z,100851.38
2023-04-26T07:24:46.397Z,100839.50
2023-04-26T07:27:12.985Z,100840.81
2023-04-26T07:29:39.382Z,100842.66
2023-04-26T07:32:06.608Z,100843.63
2023-04-26T07:34:33.095Z,100850.50
2023-04-26T07:36:59.553Z,100848.69
2023-04-26T07:39:26.090Z,100856.88
2023-04-26T07:41:52.468Z,100855.97
2023-04-26T07:44:18.873Z,100855.53
2023-04-26T07:46:45.972Z,100861.00
2023-04-26T07:49:13.223Z,100863.34
2023-04-26T07:51:41.115Z,100862.53
2023-04-26T07:54:07.537Z,100853.41
2023-04-26T07:56:33.965Z,100854.72
2023-04-26T07:59:00.494Z,100853.75
2023-04-26T08:01:26.992Z,100858.56
2023-04-26T08:03:54.789Z,100866.31
2023-04-26T08:06:22.657Z,100858.34
2023-04-26T08:08:50.838Z,100858.16
2023-04-26T08:11:18.158Z,100862.66
2023-04-26T08:13:44.825Z,100867.13
2023-04-26T08:16:11.389Z,100844.72
2023-04-26T08:18:37.871Z,100860.22
2023-04-26T08:21:04.342Z,100857.50
2023-04-26T08:23:37.478Z,100866.31
2023-04-26T08:26:04.341Z,100864.41
2023-04-26T08:28:30.952Z,100867.81
2023-04-26T08:30:58.006Z,100861.25
2023-04-26T08:33:24.579Z,100860.94
2023-04-26T08:35:51.619Z,100865.94
2023-04-26T08:38:18.054Z,100868.13
2023-04-26T08:40:47.044Z,100868.88
2023-04-26T08:43:15.171Z,100863.84
2023-04-26T08:45:44.434Z,100862.09
2023-04-26T08:48:15.836Z,100867.72
2023-04-26T08:50:45.475Z,100855.63
2023-04-26T08:53:17.579Z,100860.03
2023-04-26T08:55:50.452Z,100849.91
2023-04-26T08:58:21.529Z,100860.16
2023-04-26T09:00:48.455Z,100858.66
2023-04-26T09:03:14.948Z,100851.44
2023-04-26T09:05:45.313Z,100847.41
2023-04-26T09:08:21.994Z,100854.31
2023-04-26T09:10:48.406Z,100859.84
2023-04-26T09:13:14.904Z,100855.97
2023-04-26T09:15:41.932Z,100853.53
2023-04-26T09:18:18.588Z,100861.69
2023-04-26T09:20:45.964Z,100851.72
2023-04-26T09:23:12.369Z,100842.69
2023-04-26T09:25:39.204Z,100853.31
2023-04-26T09:28:20.630Z,100847.03
2023-04-26T09:30:47.197Z,100846.63
2023-04-26T09:33:13.666Z,100856.19
2023-04-26T09:35:43.055Z,100854.34
2023-04-26T09:38:13.562Z,100857.72
2023-04-26T09:40:52.721Z,100849.25
2023-04-26T09:43:20.819Z,100859.63
2023-04-26T09:45:55.743Z,100851.22
2023-04-26T09:48:26.610Z,100859.38
2023-04-26T09:50:55.243Z,100862.94
2023-04-26T09:53:38.941Z,100865.34
2023-04-26T09:56:10.970Z,100869.59
2023-04-26T09:58:59.323Z,100867.03
2023-04-26T10:01:29.496Z,100863.28
2023-04-26T10:03:57.961Z,100858.69
2023-04-26T10:06:25.197Z,100861.44
2023-04-26T10:08:51.780Z,100868.22
2023-04-26T10:11:18.865Z,100865.94
2023-04-26T10:13:45.644Z,100854.78
2023-04-26T10:16:12.210Z,100849.50
2023-04-26T10:18:38.672Z,100857.03
2023-04-26T10:21:11.253Z,100860.28
2023-04-26T10:23:38.119Z,100857.50
2023-04-26T10:26:05.149Z,100854.38
2023-04-26T10:28:41.340Z,100867.88
2023-04-26T10:31:08.021Z,100856.75
2023-04-26T10:33:34.551Z,100866.44
2023-04-26T10:36:12.479Z,100861.66
2023-04-26T10:38:41.160Z,100866.75
2023-04-26T10:41:33.188Z,100870.91
2023-04-26T10:44:21.731Z,100858.53
2023-04-26T10:46:54.250Z,100871.34
2023-04-26T10:49:25.673Z,100862.13
2023-04-26T10:52:12.738Z,100864.81
2023-04-26T10:54:59.355Z,100853.84
2023-04-26T10:57:50.867Z,100845.19
2023-04-26T11:00:20.949Z,100850.06
2023-04-26T11:02:55.334Z,100847.91
2023-04-26T11:05:38.657Z,100847.81
2023-04-26T11:08:14.398Z,100841.41
2023-04-26T11:10:41.584Z,100841.09
2023-04-26T11:13:08.092Z,100843.97
2023-04-26T11:15:36.101Z,100840.38
2023-04-26T11:18:04.593Z,100843.97
2023-04-26T11:20:32.453Z,100848.59
2023-04-26T11:22:59.860Z,100844.25
2023-04-26T11:25:29.985Z,100842.59
2023-04-26T11:28:01.983Z,100840.66
2023-04-26T11:30:32.771Z,100851.84
2023-04-26T11:33:06.491Z,100845.28
2023-04-26T11:35:36.754Z,100840.34
2023-04-26T11:38:06.190Z,100838.00
2023-04-26T11:40:33.598Z,100839.25
2023-04-26T11:43:09.822Z,100844.72
2023-04-26T11:45:37.989Z,100839.75
2023-04-26T11:48:07.484Z,100837.53
2023-04-26T11:50:36.650Z,100834.63
2023-04-26T11:53:06.143Z,100840.59
2023-04-26T11:55:34.196Z,100844.75
2023-04-26T11:58:01.593Z,100843.38
2023-04-26T12:00:28.035Z,100846.66
2023-04-26T12:02:55.718Z,100849.03
2023-04-26T12:05:23.503Z,100848.31
2023-04-26T12:07:57.786Z,100855.97
2023-04-26T12:10:27.700Z,100851.03
2023-04-26T12:12:56.868Z,100857.59
2023-04-26T12:15:25.355Z,100846.84
2023-04-26T12:18:05.578Z,100853.25
2023-04-26T12:20:35.645Z,100857.84
2023-04-26T12:23:13.342Z,100850.53
2023-04-26T12:25:42.235Z,100854.78
2023-04-26T12:28:13.741Z,100856.94
2023-04-26T12:30:41.062Z,100854.56
2023-04-26T12:33:16.191Z,100852.41
2023-04-26T12:35:44.053Z,100845.88
2023-04-26T12:38:10.793Z,100848.44
2023-04-26T12:40:37.547Z,100839.59
2023-04-26T12:43:04.017Z,100854.97
2023-04-26T12:45:30.814Z,100848.72
2023-04-26T12:47:57.306Z,100843.91
2023-04-26T12:50:23.948Z,100847.50
2023-04-26T12:52:50.474Z,100853.91
2023-04-26T12:55:17.350Z,100839.00
2023-04-26T12:57:45.499Z,100852.97
2023-04-26T13:00:14.273Z,100850.47
2023-04-26T13:02:41.686Z,100854.78
2023-04-26T13:05:09.501Z,100853.84
2023-04-26T13:07:39.371Z,100848.97
2023-04-26T13:10:06.983Z,100847.03
2023-04-26T13:12:34.151Z,100845.31
2023-04-26T13:15:01.100Z,100841.50
2023-04-26T13:17:27.786Z,100850.28
2023-04-26T13:19:54.426Z,100843.72
2023-04-26T13:22:20.941Z,100852.13
2023-04-26T13:24:47.458Z,100847.63
2023-04-26T13:27:13.984Z,100857.44
2023-04-26T13:29:41.187Z,100846.59
2023-04-26T13:32:08.247Z,100857.44
2023-04-26T13:34:35.202Z,100862.66
2023-04-26T13:37:03.736Z,100857.56
2023-04-26T13:39:30.460Z,100856.94
2023-04-26T13:41:58.729Z,100861.06
2023-04-26T13:44:26.669Z,100864.66
2023-04-26T13:46:55.044Z,100862.59
2023-04-26T13:49:22.896Z,100859.25
2023-04-26T13:51:49.677Z,100870.09
2023-04-26T13:54:16.820Z,100869.56
2023-04-26T13:56:43.639Z,100875.13
2023-04-26T13:59:10.199Z,100871.03
2023-04-26T14:01:36.885Z,100872.59
2023-04-26T14:04:04.544Z,100870.00
2023-04-26T14:06:32.707Z,100862.59
2023-04-26T14:08:59.169Z,100868.19
2023-04-26T14:11:25.637Z,100867.41
2023-04-26T14:13:55.947Z,100873.44
2023-04-26T14:16:24.036Z,100867.72
2023-04-26T14:18:51.020Z,100875.59
2023-04-26T14:21:18.566Z,100866.44
2023-04-26T14:23:45.075Z,100858.72
2023-04-26T14:26:11.919Z,100861.91
2023-04-26T14:28:38.850Z,100868.84
2023-04-26T14:31:05.404Z,100864.63
2023-04-26T14:33:32.106Z,100863.97
2023-04-26T14:35:58.576Z,100866.00
2023-04-26T14:38:25.015Z,100863.06
2023-04-26T14:40:51.985Z,100865.41
2023-04-26T14:43:18.449Z,100872.72
2023-04-26T14:45:45.254Z,100868.03
2023-04-26T14:48:12.421Z,100870.44
2023-04-26T14:50:38.923Z,100873.72
2023-04-26T14:53:05.395Z,100867.66
2023-04-26T14:55:32.441Z,100882.72
2023-04-26T14:57:58.842Z,100869.00
2023-04-26T15:00:25.898Z,100881.31
2023-04-26T15:02:52.422Z,100885.16
2023-04-26T15:05:19.248Z,100877.91
2023-04-26T15:07:45.679Z,100875.59
2023-04-26T15:10:12.137Z,100874.97
2023-04-26T15:12:38.582Z,100880.25
2023-04-26T15:15:05.537Z,100879.59
2023-04-26T15:17:33.103Z,100878.50
2023-04-26T15:20:01.193Z,100875.28
2023-04-26T15:22:27.688Z,100876.91
2023-04-26T15:24:54.259Z,100882.16
2023-04-26T15:27:20.693Z,100877.91
2023-04-26T15:29:47.130Z,100881.25
2023-04-26T15:32:13.659Z,100873.97
2023-04-26T15:34:43.153Z,100876.78
2023-04-26T15:37:10.313Z,100885.00
2023-04-26T15:39:37.397Z,100879.63
2023-04-26T15:42:06.457Z,100882.25
2023-04-26T15:44:33.057Z,100879.72
2023-04-26T15:47:01.449Z,100880.06
2023-04-26T15:49:28.588Z,100881.63
2023-04-26T15:51:55.383Z,100884.19
2023-04-26T15:54:22.162Z,100882.78
2023-04-26T15:56:48.778Z,100881.03
2023-04-26T15:59:15.439Z,100882.31
2023-04-26T16:01:42.060Z,100884.66
2023-04-26T16:04:08.862Z,100889.66
2023-04-26T16:06:36.027Z,100885.63
2023-04-26T16:09:17.099Z,100886.28
2023-04-26T16:11:50.415Z,100881.97
2023-04-26T16:14:16.902Z,100885.28
2023-04-26T16:16:45.672Z,100883.56
2023-04-26T16:19:12.317Z,100882.38
2023-04-26T16:21:40.139Z,100886.63
2023-04-26T16:24:09.027Z,100890.28
2023-04-26T16:26:36.136Z,100877.00
2023-04-26T16:29:04.264Z,100880.53
2023-04-26T16:31:32.244Z,100879.59
2023-04-26T16:33:59.136Z,100884.84
2023-04-26T16:36:27.696Z,100888.25
2023-04-26T16:38:54.902Z,100878.56
2023-04-26T16:41:23.109Z,100879.59
2023-04-26T16:43:52.444Z,100881.50
2023-04-26T16:46:19.388Z,100883.25
2023-04-26T16:48:46.148Z,100877.22
2023-04-26T16:51:12.620Z,100880.16
2023-04-26T16:53:39.039Z,100874.44
2023-04-26T16:56:06.392Z,100878.44
2023-04-26T16:58:33.145Z,100882.72
2023-04-26T17:00:59.649Z,100881.69
2023-04-26T17:03:26.654Z,100874.72
2023-04-26T17:05:53.343Z,100874.50
2023-04-26T17:08:20.036Z,100881.47
2023-04-26T17:10:47.303Z,100886.69
2023-04-26T17:13:13.961Z,100887.34
2023-04-26T17:15:41.374Z,100892.06
2023-04-26T17:18:08.426Z,100888.81
2023-04-26T17:20:35.792Z,100891.34
2023-04-26T17:23:04.320Z,100894.94
2023-04-26T17:25:31.189Z,100888.47
2023-04-26T17:27:57.874Z,100894.81
2023-04-26T17:30:24.332Z,100892.44
2023-04-26T17:32:50.937Z,100896.25
2023-04-26T17:35:17.469Z,100898.78
2023-04-26T17:37:46.285Z,100900.81
2023-04-26T17:40:12.956Z,100906.94
2023-04-26T17:42:39.472Z,100904.38
2023-04-26T17:45:06.693Z,100906.84
2023-04-26T17:47:33.291Z,100908.47
2023-04-26T17:50:00.033Z,100904.13
2023-04-26T17:52:26.977Z,100904.69
2023-04-26T17:54:54.479Z,100906.13
2023-04-26T17:57:23.093Z,100911.66
2023-04-26T17:59:53.309Z,100911.66
2023-04-26T18:02:19.839Z,100911.75
2023-04-26T18:04:47.317Z,100909.16
2023-04-26T18:07:14.865Z,100912.06
2023-04-26T18:09:41.792Z,100912.72
2023-04-26T18:12:08.786Z,100914.69
2023-04-26T18:14:35.483Z,100911.97
2023-04-26T18:17:02.085Z,100911.50
2023-04-26T18:19:28.573Z,100910.44
2023-04-26T18:21:55.109Z,100912.59
2023-04-26T18:24:21.636Z,100911.06
2023-04-26T18:26:48.192Z,100920.97
2023-04-26T18:29:14.689Z,100921.78
2023-04-26T18:31:41.373Z,100920.97
2023-04-26T18:34:07.961Z,100922.94
2023-04-26T18:36:34.438Z,100920.34
2023-04-26T18:39:01.261Z,100928.84
2023-04-26T18:41:27.839Z,100934.06
2023-04-26T18:43:54.487Z,100929.78
2023-04-26T18:46:21.726Z,100935.28
2023-04-26T18:48:48.198Z,100938.69
2023-04-26T18:51:14.712Z,100939.59
2023-04-26T18:53:41.173Z,100941.28
2023-04-26T18:56:07.623Z,100942.97
2023-04-26T18:58:34.547Z,100949.78
2023-04-26T19:01:01.051Z,100945.75
2023-04-26T19:03:28.013Z,100947.94
2023-04-26T19:05:54.795Z,100943.31
2023-04-26T19:08:21.291Z,100949.78
2023-04-26T19:10:47.779Z,100952.25
2023-04-26T19:13:14.318Z,100956.88
2023-04-26T19:15:40.995Z,100962.81
2023-04-26T19:18:07.657Z,100963.63
2023-04-26T19:20:34.419Z,100963.34
2023-04-26T19:23:00.914Z,100960.38
2023-04-26T19:25:27.500Z,100967.13
2023-04-26T19:27:54.102Z,100965.50
2023-04-26T19:30:20.517Z,100969.28
2023-04-26T19:32:47.088Z,100963.84
2023-04-26T19:35:13.578Z,100969.28
2023-04-26T19:37:40.042Z,100967.63
2023-04-26T19:40:07.584Z,100974.66
2023-04-26T19:42:34.054Z,100964.88
2023-04-26T19:45:00.684Z,100975.97
2023-04-26T19:47:27.152Z,100968.38
2023-04-26T19:49:55.465Z,100975.66
2023-04-26T19:52:21.902Z,100980.50
2023-04-26T19:54:48.342Z,100980.22
2023-04-26T19:57:15.310Z,100973.19
2023-04-26T19:59:41.898Z,100982.06
2023-04-26T20:02:08.432Z,100973.66
2023-04-26T20:04:35.033Z,100982.59
2023-04-26T20:07:02.178Z,100982.06
2023-04-26T20:09:28.702Z,100980.72
2023-04-26T20:11:55.510Z,100984.78
2023-04-26T20:14:22.017Z,100988.53
2023-04-26T20:16:48.585Z,100979.31
2023-04-26T20:19:17.890Z,100978.25
2023-04-26T20:21:44.292Z,100984.72
2023-04-26T20:24:10.702Z,100979.56
2023-04-26T20:26:37.245Z,100976.03
2023-04-26T20:29:03.836Z,100976.53
2023-04-26T20:31:30.424Z,100983.25
2023-04-26T20:33:57.857Z,100972.72
2023-04-26T20:36:26.283Z,100982.13
2023-04-26T20:38:52.793Z,100976.72
2023-04-26T20:41:19.268Z,100966.13
2023-04-26T20:43:45.679Z,100977.72
2023-04-26T20:46:12.154Z,100981.22
2023-04-26T20:48:38.991Z,100984.16
2023-04-26T20:51:05.879Z,100980.94
2023-04-26T20:53:32.484Z,100980.94
2023-04-26T20:55:59.230Z,100976.31
2023-04-26T20:58:26.904Z,100981.97
2023-04-26T21:00:55.433Z,100975.75
2023-04-26T21:03:22.860Z,100987.88
2023-04-26T21:05:49.804Z,100985.13
2023-04-26T21:08:16.751Z,100992.13
2023-04-26T21:10:43.424Z,100990.75
2023-04-26T21:13:10.682Z,100994.00
2023-04-26T21:15:37.499Z,100989.94
2023-04-26T21:18:04.523Z,101000.72
2023-04-26T21:20:31.192Z,101005.56
2023-04-26T21:22:57.901Z,100997.94
2023-04-26T21:25:24.564Z,101004.69
2023-04-26T21:27:51.577Z,100993.91
2023-04-26T21:30:18.357Z,100994.19
2023-04-26T21:32:45.171Z,100993.63
2023-04-26T21:35:12.002Z,100987.41
2023-04-26T21:37:38.623Z,100993.31
2023-04-26T21:40:06.706Z,101001.09
2023-04-26T21:42:33.388Z,101001.91
2023-04-26T21:45:00.063Z,101003.44
2023-04-26T21:47:26.788Z,101000.59
2023-04-26T21:49:53.514Z,101007.63
2023-04-26T21:52:20.129Z,101010.25
2023-04-26T21:54:46.743Z,101004.34
2023-04-26T21:57:13.585Z,101015.22
2023-04-26T21:59:42.246Z,101017.94
2023-04-26T22:02:08.986Z,101014.88
2023-04-26T22:04:35.747Z,101018.97
2023-04-26T22:07:02.586Z,101025.94
2023-04-26T22:09:29.301Z,101019.44
2023-04-26T22:11:56.002Z,101012.34
2023-04-26T22:14:22.697Z,101018.75
2023-04-26T22:16:49.476Z,101017.88
2023-04-26T22:19:16.242Z,101022.13
2023-04-26T22:21:42.870Z,101022.38
2023-04-26T22:24:11.178Z,101015.88
2023-04-26T22:26:39.250Z,101030.88
2023-04-26T22:29:07.337Z,101018.84
2023-04-26T22:31:35.447Z,101026.59
2023-04-26T22:34:03.820Z,101030.38
2023-04-26T22:36:31.449Z,101025.19
2023-04-26T22:38:59.925Z,101029.31
2023-04-26T22:41:27.927Z,101029.44
2023-04-26T22:43:56.047Z,101032.03
2023-04-26T22:46:24.243Z,101030.03
2023-04-26T22:48:52.663Z,101030.84
2023-04-26T22:51:20.810Z,101024.47
2023-04-26T22:53:49.039Z,101027.72
2023-04-26T22:56:20.390Z,101023.72
2023-04-26T22:58:48.864Z,101028.81
2023-04-26T23:01:17.084Z,101028.72
2023-04-26T23:03:51.462Z,101026.75
2023-04-26T23:06:19.412Z,101030.84
2023-04-26T23:08:47.464Z,101031.91
2023-04-26T23:11:15.614Z,101026.97
2023-04-26T23:13:43.853Z,101034.81
2023-04-26T23:16:11.788Z,101037.06
2023-04-26T23:18:44.207Z,101042.81
2023-04-26T23:21:12.438Z,101041.03
2023-04-26T23:23:43.202Z,101038.91
2023-04-26T23:26:11.515Z,101041.84
2023-04-26T23:28:39.840Z,101042.97
2023-04-26T23:31:08.418Z,101041.28
2023-04-26T23:33:36.845Z,101035.81
2023-04-26T23:36:05.270Z,101041.13
2023-04-26T23:38:33.696Z,101035.78
2023-04-26T23:41:02.170Z,101040.44
2023-04-26T23:43:33.614Z,101041.66
2023-04-26T23:46:04.890Z,101043.47
2023-04-26T23:48:33.591Z,101041.91
2023-04-26T23:51:02.265Z,101041.91
2023-04-26T23:53:30.587Z,101041.75
2023-04-26T23:55:58.838Z,101036.34
2023-04-26T23:58:27.139Z,101033.19
